sensor_id;sensor_type;location;lat;lon;timestamp;temperature;humidity
22923;DHT22;11627;51.322;22.816;2024-02-23T00:01:47;6.90;97.80
22923;DHT22;11627;51.322;22.816;2024-02-23T00:06:39;7.00;99.90
22923;DHT22;11627;51.322;22.816;2024-02-23T00:09:05;7.10;99.40
22923;DHT22;11627;51.322;22.816;2024-02-23T00:11:31;7.10;99.10
22923;DHT22;11627;51.322;22.816;2024-02-23T00:13:59;7.00;97.70
22923;DHT22;11627;51.322;22.816;2024-02-23T00:16:25;7.00;95.20
22923;DHT22;11627;51.322;22.816;2024-02-23T00:18:55;7.40;99.90
22923;DHT22;11627;51.322;22.816;2024-02-23T00:21:21;7.30;99.90
22923;DHT22;11627;51.322;22.816;2024-02-23T00:23:48;7.20;99.90
22923;DHT22;11627;51.322;22.816;2024-02-23T00:28:40;6.90;99.30
22923;DHT22;11627;51.322;22.816;2024-02-23T00:31:08;7.00;99.60
22923;DHT22;11627;51.322;22.816;2024-02-23T00:33:35;7.50;99.80
22923;DHT22;11627;51.322;22.816;2024-02-23T00:36:03;7.30;95.80
22923;DHT22;11627;51.322;22.816;2024-02-23T00:45:48;7.40;99.90
22923;DHT22;11627;51.322;22.816;2024-02-23T00:48:14;7.50;99.90
22923;DHT22;11627;51.322;22.816;2024-02-23T00:50:41;7.50;99.90
22923;DHT22;11627;51.322;22.816;2024-02-23T00:53:07;7.10;99.90
22923;DHT22;11627;51.322;22.816;2024-02-23T00:55:33;7.40;99.90
22923;DHT22;11627;51.322;22.816;2024-02-23T00:57:59;7.00;99.90
22923;DHT22;11627;51.322;22.816;2024-02-23T01:02:52;7.10;99.90
22923;DHT22;11627;51.322;22.816;2024-02-23T01:05:19;7.40;99.90
22923;DHT22;11627;51.322;22.816;2024-02-23T01:07:46;7.50;99.90
22923;DHT22;11627;51.322;22.816;2024-02-23T01:12:38;7.60;99.90
22923;DHT22;11627;51.322;22.816;2024-02-23T01:15:04;7.70;99.90
22923;DHT22;11627;51.322;22.816;2024-02-23T01:17:30;7.40;99.90
22923;DHT22;11627;51.322;22.816;2024-02-23T01:22:22;7.20;99.90
22923;DHT22;11627;51.322;22.816;2024-02-23T01:27:15;7.00;99.90
22923;DHT22;11627;51.322;22.816;2024-02-23T01:29:41;7.40;99.90
22923;DHT22;11627;51.322;22.816;2024-02-23T01:34:34;7.00;99.90
22923;DHT22;11627;51.322;22.816;2024-02-23T01:37:00;7.50;99.90
22923;DHT22;11627;51.322;22.816;2024-02-23T01:39:26;7.10;99.90
22923;DHT22;11627;51.322;22.816;2024-02-23T01:49:15;7.50;99.90
22923;DHT22;11627;51.322;22.816;2024-02-23T01:51:41;7.20;99.90
22923;DHT22;11627;51.322;22.816;2024-02-23T01:54:08;7.20;99.90
22923;DHT22;11627;51.322;22.816;2024-02-23T01:56:35;7.60;99.90
22923;DHT22;11627;51.322;22.816;2024-02-23T01:59:02;7.20;99.90
22923;DHT22;11627;51.322;22.816;2024-02-23T02:01:31;7.30;99.90
22923;DHT22;11627;51.322;22.816;2024-02-23T02:03:58;7.50;99.90
22923;DHT22;11627;51.322;22.816;2024-02-23T02:06:26;7.20;99.90
22923;DHT22;11627;51.322;22.816;2024-02-23T02:11:18;7.50;99.90
22923;DHT22;11627;51.322;22.816;2024-02-23T02:13:44;7.40;99.90
22923;DHT22;11627;51.322;22.816;2024-02-23T02:18:37;7.20;99.90
22923;DHT22;11627;51.322;22.816;2024-02-23T02:21:04;7.40;99.90
22923;DHT22;11627;51.322;22.816;2024-02-23T02:25:57;7.30;99.90
22923;DHT22;11627;51.322;22.816;2024-02-23T02:28:24;7.20;99.90
22923;DHT22;11627;51.322;22.816;2024-02-23T02:30:52;7.40;99.90
22923;DHT22;11627;51.322;22.816;2024-02-23T02:33:20;7.60;99.90
22923;DHT22;11627;51.322;22.816;2024-02-23T02:35:47;7.40;99.90
22923;DHT22;11627;51.322;22.816;2024-02-23T02:38:13;7.30;99.90
22923;DHT22;11627;51.322;22.816;2024-02-23T02:40:39;7.60;99.90
22923;DHT22;11627;51.322;22.816;2024-02-23T02:43:06;7.50;99.90
22923;DHT22;11627;51.322;22.816;2024-02-23T02:45:33;7.50;99.90
22923;DHT22;11627;51.322;22.816;2024-02-23T02:48:03;7.60;99.90
22923;DHT22;11627;51.322;22.816;2024-02-23T02:50:30;7.40;99.90
22923;DHT22;11627;51.322;22.816;2024-02-23T02:52:56;7.30;99.90
22923;DHT22;11627;51.322;22.816;2024-02-23T02:55:22;7.50;99.90
22923;DHT22;11627;51.322;22.816;2024-02-23T03:00:14;7.30;99.90
22923;DHT22;11627;51.322;22.816;2024-02-23T03:02:41;7.30;99.90
22923;DHT22;11627;51.322;22.816;2024-02-23T03:05:07;7.50;99.90
22923;DHT22;11627;51.322;22.816;2024-02-23T03:07:36;7.50;99.90
22923;DHT22;11627;51.322;22.816;2024-02-23T03:12:29;7.40;99.90
22923;DHT22;11627;51.322;22.816;2024-02-23T03:17:21;7.70;99.90
22923;DHT22;11627;51.322;22.816;2024-02-23T03:27:10;7.90;99.90
22923;DHT22;11627;51.322;22.816;2024-02-23T03:29:35;8.00;99.60
22923;DHT22;11627;51.322;22.816;2024-02-23T03:32:03;7.50;97.50
22923;DHT22;11627;51.322;22.816;2024-02-23T03:34:29;8.00;96.00
22923;DHT22;11627;51.322;22.816;2024-02-23T03:36:55;7.80;94.40
22923;DHT22;11627;51.322;22.816;2024-02-23T03:39:22;7.90;93.70
22923;DHT22;11627;51.322;22.816;2024-02-23T03:44:14;8.00;83.50
22923;DHT22;11627;51.322;22.816;2024-02-23T03:49:09;8.00;89.90
22923;DHT22;11627;51.322;22.816;2024-02-23T03:51:36;8.00;85.70
22923;DHT22;11627;51.322;22.816;2024-02-23T03:54:06;8.20;82.90
22923;DHT22;11627;51.322;22.816;2024-02-23T03:56:41;8.20;85.60
22923;DHT22;11627;51.322;22.816;2024-02-23T03:59:09;7.80;87.00
22923;DHT22;11627;51.322;22.816;2024-02-23T04:01:38;8.10;86.00
22923;DHT22;11627;51.322;22.816;2024-02-23T04:04:05;8.20;89.30
22923;DHT22;11627;51.322;22.816;2024-02-23T04:06:31;8.10;88.80
22923;DHT22;11627;51.322;22.816;2024-02-23T04:09:01;8.10;87.70
22923;DHT22;11627;51.322;22.816;2024-02-23T04:13:58;8.10;88.10
22923;DHT22;11627;51.322;22.816;2024-02-23T04:16:24;8.60;90.00
22923;DHT22;11627;51.322;22.816;2024-02-23T04:18:53;8.00;84.80
22923;DHT22;11627;51.322;22.816;2024-02-23T04:21:20;8.10;99.80
22923;DHT22;11627;51.322;22.816;2024-02-23T04:23:46;8.20;99.90
22923;DHT22;11627;51.322;22.816;2024-02-23T04:26:14;7.90;99.00
22923;DHT22;11627;51.322;22.816;2024-02-23T04:28:43;7.70;99.80
22923;DHT22;11627;51.322;22.816;2024-02-23T04:33:36;7.90;99.90
22923;DHT22;11627;51.322;22.816;2024-02-23T04:36:04;8.00;93.30
22923;DHT22;11627;51.322;22.816;2024-02-23T04:38:32;7.80;99.90
22923;DHT22;11627;51.322;22.816;2024-02-23T04:41:03;7.90;94.60
22923;DHT22;11627;51.322;22.816;2024-02-23T04:45:56;8.10;92.70
22923;DHT22;11627;51.322;22.816;2024-02-23T04:48:23;7.70;99.30
22923;DHT22;11627;51.322;22.816;2024-02-23T04:50:51;8.00;88.30
22923;DHT22;11627;51.322;22.816;2024-02-23T04:53:17;8.00;97.30
22923;DHT22;11627;51.322;22.816;2024-02-23T04:55:43;8.30;97.70
22923;DHT22;11627;51.322;22.816;2024-02-23T04:58:08;8.10;96.00
22923;DHT22;11627;51.322;22.816;2024-02-23T05:00:34;8.20;99.90
22923;DHT22;11627;51.322;22.816;2024-02-23T05:03:00;7.80;96.90
22923;DHT22;11627;51.322;22.816;2024-02-23T05:05:29;7.90;99.90
22923;DHT22;11627;51.322;22.816;2024-02-23T05:07:57;7.90;99.90
22923;DHT22;11627;51.322;22.816;2024-02-23T05:10:26;7.90;99.90
22923;DHT22;11627;51.322;22.816;2024-02-23T05:12:53;7.70;99.90
22923;DHT22;11627;51.322;22.816;2024-02-23T05:15:19;8.10;99.90
22923;DHT22;11627;51.322;22.816;2024-02-23T05:17:46;7.80;99.90
22923;DHT22;11627;51.322;22.816;2024-02-23T05:20:13;7.80;99.90
22923;DHT22;11627;51.322;22.816;2024-02-23T05:22:39;8.00;99.90
22923;DHT22;11627;51.322;22.816;2024-02-23T05:27:34;8.10;99.90
22923;DHT22;11627;51.322;22.816;2024-02-23T05:30:00;7.50;99.90
22923;DHT22;11627;51.322;22.816;2024-02-23T05:37:20;7.40;99.90
22923;DHT22;11627;51.322;22.816;2024-02-23T05:39:46;7.70;99.90
22923;DHT22;11627;51.322;22.816;2024-02-23T05:42:12;7.70;99.90
22923;DHT22;11627;51.322;22.816;2024-02-23T05:47:06;7.70;99.90
22923;DHT22;11627;51.322;22.816;2024-02-23T05:49:33;7.50;99.90
22923;DHT22;11627;51.322;22.816;2024-02-23T05:54:27;7.90;99.90
22923;DHT22;11627;51.322;22.816;2024-02-23T05:56:52;7.40;99.90
22923;DHT22;11627;51.322;22.816;2024-02-23T06:01:45;7.60;99.90
22923;DHT22;11627;51.322;22.816;2024-02-23T06:04:10;7.70;99.90
22923;DHT22;11627;51.322;22.816;2024-02-23T06:11:32;7.80;99.90
22923;DHT22;11627;51.322;22.816;2024-02-23T06:16:24;7.70;99.90
22923;DHT22;11627;51.322;22.816;2024-02-23T06:18:50;7.70;99.90
22923;DHT22;11627;51.322;22.816;2024-02-23T06:21:17;7.60;99.90
22923;DHT22;11627;51.322;22.816;2024-02-23T06:23:44;7.60;99.90
22923;DHT22;11627;51.322;22.816;2024-02-23T06:26:11;7.50;99.90
22923;DHT22;11627;51.322;22.816;2024-02-23T06:28:37;7.60;99.90
22923;DHT22;11627;51.322;22.816;2024-02-23T06:33:35;7.80;99.90
22923;DHT22;11627;51.322;22.816;2024-02-23T06:36:01;7.70;99.90
22923;DHT22;11627;51.322;22.816;2024-02-23T06:40:58;7.90;99.90
22923;DHT22;11627;51.322;22.816;2024-02-23T06:48:17;8.20;99.90
22923;DHT22;11627;51.322;22.816;2024-02-23T06:50:43;8.00;99.90
22923;DHT22;11627;51.322;22.816;2024-02-23T06:55:35;8.10;99.90
22923;DHT22;11627;51.322;22.816;2024-02-23T06:58:02;8.30;99.90
22923;DHT22;11627;51.322;22.816;2024-02-23T07:00:30;8.10;99.90
22923;DHT22;11627;51.322;22.816;2024-02-23T07:02:56;8.10;99.90
22923;DHT22;11627;51.322;22.816;2024-02-23T07:05:25;7.90;99.90
22923;DHT22;11627;51.322;22.816;2024-02-23T07:07:51;8.30;99.90
22923;DHT22;11627;51.322;22.816;2024-02-23T07:10:17;8.20;99.90
22923;DHT22;11627;51.322;22.816;2024-02-23T07:12:44;8.20;99.90
22923;DHT22;11627;51.322;22.816;2024-02-23T07:20:02;8.00;99.90
22923;DHT22;11627;51.322;22.816;2024-02-23T07:22:32;8.40;99.90
22923;DHT22;11627;51.322;22.816;2024-02-23T07:27:25;8.20;99.90
22923;DHT22;11627;51.322;22.816;2024-02-23T07:29:52;7.90;99.90
22923;DHT22;11627;51.322;22.816;2024-02-23T07:32:18;8.20;99.90
22923;DHT22;11627;51.322;22.816;2024-02-23T07:34:45;8.20;99.90
22923;DHT22;11627;51.322;22.816;2024-02-23T07:37:13;8.30;99.90
22923;DHT22;11627;51.322;22.816;2024-02-23T07:39:39;8.20;99.90
22923;DHT22;11627;51.322;22.816;2024-02-23T07:42:05;8.10;99.90
22923;DHT22;11627;51.322;22.816;2024-02-23T07:44:33;8.10;99.90
22923;DHT22;11627;51.322;22.816;2024-02-23T07:49:25;8.10;99.90
22923;DHT22;11627;51.322;22.816;2024-02-23T07:51:53;8.00;99.90
22923;DHT22;11627;51.322;22.816;2024-02-23T07:54:20;8.30;99.90
22923;DHT22;11627;51.322;22.816;2024-02-23T08:01:38;8.30;99.90
22923;DHT22;11627;51.322;22.816;2024-02-23T08:04:08;8.50;99.90
22923;DHT22;11627;51.322;22.816;2024-02-23T08:06:34;8.00;99.90
22923;DHT22;11627;51.322;22.816;2024-02-23T08:09:00;8.30;99.90
22923;DHT22;11627;51.322;22.816;2024-02-23T08:11:26;8.30;99.90
22923;DHT22;11627;51.322;22.816;2024-02-23T08:16:18;8.40;99.90
22923;DHT22;11627;51.322;22.816;2024-02-23T08:21:10;8.20;99.90
22923;DHT22;11627;51.322;22.816;2024-02-23T08:23:37;8.00;99.90
22923;DHT22;11627;51.322;22.816;2024-02-23T08:26:03;8.60;99.90
22923;DHT22;11627;51.322;22.816;2024-02-23T08:33:21;8.20;99.90
22923;DHT22;11627;51.322;22.816;2024-02-23T08:35:48;8.50;99.90
22923;DHT22;11627;51.322;22.816;2024-02-23T08:38:15;8.50;99.90
22923;DHT22;11627;51.322;22.816;2024-02-23T08:40:41;8.30;99.90
22923;DHT22;11627;51.322;22.816;2024-02-23T08:43:07;8.30;99.90
22923;DHT22;11627;51.322;22.816;2024-02-23T08:45:33;8.00;99.90
22923;DHT22;11627;51.322;22.816;2024-02-23T08:48:00;8.00;99.90
22923;DHT22;11627;51.322;22.816;2024-02-23T08:52:52;8.20;99.90
22923;DHT22;11627;51.322;22.816;2024-02-23T08:55:19;8.10;99.90
22923;DHT22;11627;51.322;22.816;2024-02-23T08:57:46;8.10;99.90
22923;DHT22;11627;51.322;22.816;2024-02-23T09:00:13;8.30;99.90
22923;DHT22;11627;51.322;22.816;2024-02-23T09:02:40;8.30;99.90
22923;DHT22;11627;51.322;22.816;2024-02-23T09:05:10;8.40;99.90
22923;DHT22;11627;51.322;22.816;2024-02-23T09:12:30;8.50;99.90
22923;DHT22;11627;51.322;22.816;2024-02-23T09:14:57;8.40;99.90
22923;DHT22;11627;51.322;22.816;2024-02-23T09:17:24;8.80;99.90
22923;DHT22;11627;51.322;22.816;2024-02-23T09:19:51;8.50;99.90
22923;DHT22;11627;51.322;22.816;2024-02-23T09:22:17;8.60;99.90
22923;DHT22;11627;51.322;22.816;2024-02-23T09:24:43;8.60;99.90
22923;DHT22;11627;51.322;22.816;2024-02-23T09:27:09;8.70;99.90
22923;DHT22;11627;51.322;22.816;2024-02-23T09:29:37;8.60;99.90
22923;DHT22;11627;51.322;22.816;2024-02-23T09:32:04;8.50;99.90
22923;DHT22;11627;51.322;22.816;2024-02-23T09:34:30;8.70;99.90
22923;DHT22;11627;51.322;22.816;2024-02-23T09:41:55;8.50;99.90
22923;DHT22;11627;51.322;22.816;2024-02-23T09:44:29;8.40;99.90
22923;DHT22;11627;51.322;22.816;2024-02-23T09:47:04;8.30;99.90
22923;DHT22;11627;51.322;22.816;2024-02-23T09:49:40;8.60;99.90
22923;DHT22;11627;51.322;22.816;2024-02-23T09:52:10;8.40;99.90
22923;DHT22;11627;51.322;22.816;2024-02-23T09:54:40;8.50;99.90
22923;DHT22;11627;51.322;22.816;2024-02-23T09:57:08;8.80;99.90
22923;DHT22;11627;51.322;22.816;2024-02-23T09:59:37;8.50;99.90
22923;DHT22;11627;51.322;22.816;2024-02-23T10:02:17;8.60;99.90
22923;DHT22;11627;51.322;22.816;2024-02-23T10:04:44;8.60;99.90
22923;DHT22;11627;51.322;22.816;2024-02-23T10:07:10;8.50;99.90
22923;DHT22;11627;51.322;22.816;2024-02-23T10:09:36;8.60;99.90
22923;DHT22;11627;51.322;22.816;2024-02-23T10:12:02;8.60;99.90
22923;DHT22;11627;51.322;22.816;2024-02-23T10:14:30;8.70;99.90
22923;DHT22;11627;51.322;22.816;2024-02-23T10:16:56;8.70;99.90
22923;DHT22;11627;51.322;22.816;2024-02-23T10:19:23;8.60;99.90
22923;DHT22;11627;51.322;22.816;2024-02-23T10:21:56;8.30;99.90
22923;DHT22;11627;51.322;22.816;2024-02-23T10:24:23;8.40;99.90
22923;DHT22;11627;51.322;22.816;2024-02-23T10:26:53;8.50;99.90
22923;DHT22;11627;51.322;22.816;2024-02-23T10:29:20;9.00;99.90
22923;DHT22;11627;51.322;22.816;2024-02-23T10:31:47;8.50;99.90
22923;DHT22;11627;51.322;22.816;2024-02-23T10:34:19;8.60;99.90
22923;DHT22;11627;51.322;22.816;2024-02-23T10:36:46;8.70;99.90
22923;DHT22;11627;51.322;22.816;2024-02-23T10:39:18;8.50;99.90
22923;DHT22;11627;51.322;22.816;2024-02-23T10:41:56;8.70;99.90
22923;DHT22;11627;51.322;22.816;2024-02-23T10:44:28;8.80;99.90
22923;DHT22;11627;51.322;22.816;2024-02-23T10:46:57;8.40;99.90
22923;DHT22;11627;51.322;22.816;2024-02-23T10:49:26;8.70;99.90
22923;DHT22;11627;51.322;22.816;2024-02-23T10:51:54;8.30;99.90
22923;DHT22;11627;51.322;22.816;2024-02-23T10:54:22;8.70;99.90
22923;DHT22;11627;51.322;22.816;2024-02-23T10:56:52;8.50;99.90
22923;DHT22;11627;51.322;22.816;2024-02-23T10:59:20;8.20;99.90
22923;DHT22;11627;51.322;22.816;2024-02-23T11:02:08;8.60;99.90
22923;DHT22;11627;51.322;22.816;2024-02-23T11:04:35;8.50;99.90
22923;DHT22;11627;51.322;22.816;2024-02-23T11:07:03;8.20;99.90
22923;DHT22;11627;51.322;22.816;2024-02-23T11:09:33;8.30;99.90
22923;DHT22;11627;51.322;22.816;2024-02-23T11:12:04;8.30;99.90
22923;DHT22;11627;51.322;22.816;2024-02-23T11:14:37;7.80;99.90
22923;DHT22;11627;51.322;22.816;2024-02-23T11:17:05;8.00;99.90
22923;DHT22;11627;51.322;22.816;2024-02-23T11:19:41;7.90;99.90
22923;DHT22;11627;51.322;22.816;2024-02-23T11:22:11;8.10;99.90
22923;DHT22;11627;51.322;22.816;2024-02-23T11:24:43;7.90;99.90
22923;DHT22;11627;51.322;22.816;2024-02-23T11:27:15;8.00;99.90
22923;DHT22;11627;51.322;22.816;2024-02-23T11:29:46;7.90;99.90
22923;DHT22;11627;51.322;22.816;2024-02-23T11:32:16;7.80;99.90
22923;DHT22;11627;51.322;22.816;2024-02-23T11:34:55;8.10;99.90
22923;DHT22;11627;51.322;22.816;2024-02-23T11:37:28;8.00;99.90
22923;DHT22;11627;51.322;22.816;2024-02-23T11:39:55;8.30;99.90
22923;DHT22;11627;51.322;22.816;2024-02-23T11:42:23;8.30;99.90
22923;DHT22;11627;51.322;22.816;2024-02-23T11:44:51;8.10;99.90
22923;DHT22;11627;51.322;22.816;2024-02-23T11:47:20;8.10;99.90
22923;DHT22;11627;51.322;22.816;2024-02-23T11:49:46;8.10;99.90
22923;DHT22;11627;51.322;22.816;2024-02-23T11:52:12;7.90;99.90
22923;DHT22;11627;51.322;22.816;2024-02-23T11:54:38;7.90;99.90
22923;DHT22;11627;51.322;22.816;2024-02-23T11:57:04;7.80;99.90
22923;DHT22;11627;51.322;22.816;2024-02-23T11:59:32;8.10;99.90
22923;DHT22;11627;51.322;22.816;2024-02-23T12:01:58;8.10;99.90
22923;DHT22;11627;51.322;22.816;2024-02-23T12:04:27;8.10;99.90
22923;DHT22;11627;51.322;22.816;2024-02-23T12:06:54;7.90;99.90
22923;DHT22;11627;51.322;22.816;2024-02-23T12:09:21;8.10;99.90
22923;DHT22;11627;51.322;22.816;2024-02-23T12:11:49;8.00;99.90
22923;DHT22;11627;51.322;22.816;2024-02-23T12:14:16;7.90;99.90
22923;DHT22;11627;51.322;22.816;2024-02-23T12:16:45;8.10;99.90
22923;DHT22;11627;51.322;22.816;2024-02-23T12:19:11;8.20;99.90
22923;DHT22;11627;51.322;22.816;2024-02-23T12:21:40;7.70;99.90
22923;DHT22;11627;51.322;22.816;2024-02-23T12:24:06;8.00;99.90
22923;DHT22;11627;51.322;22.816;2024-02-23T12:26:33;8.30;99.90
22923;DHT22;11627;51.322;22.816;2024-02-23T12:29:04;8.00;99.90
22923;DHT22;11627;51.322;22.816;2024-02-23T12:31:33;8.10;99.90
22923;DHT22;11627;51.322;22.816;2024-02-23T12:34:00;8.00;99.90
22923;DHT22;11627;51.322;22.816;2024-02-23T12:36:26;8.30;99.90
22923;DHT22;11627;51.322;22.816;2024-02-23T12:39:03;8.20;99.90
22923;DHT22;11627;51.322;22.816;2024-02-23T12:41:30;8.00;99.90
22923;DHT22;11627;51.322;22.816;2024-02-23T12:43:59;8.30;99.90
22923;DHT22;11627;51.322;22.816;2024-02-23T12:46:25;7.70;99.90
22923;DHT22;11627;51.322;22.816;2024-02-23T12:48:52;8.20;99.90
22923;DHT22;11627;51.322;22.816;2024-02-23T12:51:18;8.00;99.90
22923;DHT22;11627;51.322;22.816;2024-02-23T12:53:44;7.90;99.90
22923;DHT22;11627;51.322;22.816;2024-02-23T12:56:14;7.80;99.90
22923;DHT22;11627;51.322;22.816;2024-02-23T12:58:44;8.10;99.90
22923;DHT22;11627;51.322;22.816;2024-02-23T13:01:13;8.00;99.90
22923;DHT22;11627;51.322;22.816;2024-02-23T13:03:41;8.20;99.90
22923;DHT22;11627;51.322;22.816;2024-02-23T13:06:07;8.20;99.90
22923;DHT22;11627;51.322;22.816;2024-02-23T13:08:33;7.90;99.90
22923;DHT22;11627;51.322;22.816;2024-02-23T13:13:29;8.40;99.90
22923;DHT22;11627;51.322;22.816;2024-02-23T13:15:56;8.10;99.90
22923;DHT22;11627;51.322;22.816;2024-02-23T13:18:22;8.00;99.90
22923;DHT22;11627;51.322;22.816;2024-02-23T13:20:48;8.00;99.90
22923;DHT22;11627;51.322;22.816;2024-02-23T13:23:15;8.10;99.90
22923;DHT22;11627;51.322;22.816;2024-02-23T13:25:41;8.10;99.90
22923;DHT22;11627;51.322;22.816;2024-02-23T13:28:09;8.20;99.90
22923;DHT22;11627;51.322;22.816;2024-02-23T13:30:37;8.10;99.90
22923;DHT22;11627;51.322;22.816;2024-02-23T13:33:04;8.10;99.90
22923;DHT22;11627;51.322;22.816;2024-02-23T13:37:58;8.50;99.90
22923;DHT22;11627;51.322;22.816;2024-02-23T13:40:25;8.40;99.90
22923;DHT22;11627;51.322;22.816;2024-02-23T13:42:52;8.30;99.90
22923;DHT22;11627;51.322;22.816;2024-02-23T13:45:20;8.20;99.90
22923;DHT22;11627;51.322;22.816;2024-02-23T13:48:02;8.30;99.90
22923;DHT22;11627;51.322;22.816;2024-02-23T13:50:30;8.60;99.90
22923;DHT22;11627;51.322;22.816;2024-02-23T13:52:58;8.20;99.90
22923;DHT22;11627;51.322;22.816;2024-02-23T13:55:24;8.10;99.90
22923;DHT22;11627;51.322;22.816;2024-02-23T13:57:50;8.40;99.90
22923;DHT22;11627;51.322;22.816;2024-02-23T14:00:19;8.40;99.90
22923;DHT22;11627;51.322;22.816;2024-02-23T14:02:46;8.30;99.90
22923;DHT22;11627;51.322;22.816;2024-02-23T14:05:13;8.50;99.90
22923;DHT22;11627;51.322;22.816;2024-02-23T14:07:40;8.30;99.90
22923;DHT22;11627;51.322;22.816;2024-02-23T14:10:07;8.30;99.90
22923;DHT22;11627;51.322;22.816;2024-02-23T14:15:00;8.60;99.90
22923;DHT22;11627;51.322;22.816;2024-02-23T14:17:26;8.40;99.90
22923;DHT22;11627;51.322;22.816;2024-02-23T14:19:52;8.20;99.90
22923;DHT22;11627;51.322;22.816;2024-02-23T14:22:19;8.10;99.90
22923;DHT22;11627;51.322;22.816;2024-02-23T14:24:46;8.60;99.90
22923;DHT22;11627;51.322;22.816;2024-02-23T14:27:13;8.30;99.90
22923;DHT22;11627;51.322;22.816;2024-02-23T14:29:38;8.20;99.90
22923;DHT22;11627;51.322;22.816;2024-02-23T14:34:32;8.30;99.90
22923;DHT22;11627;51.322;22.816;2024-02-23T14:37:00;8.50;99.90
22923;DHT22;11627;51.322;22.816;2024-02-23T14:39:26;8.70;99.90
22923;DHT22;11627;51.322;22.816;2024-02-23T14:41:53;8.50;99.90
22923;DHT22;11627;51.322;22.816;2024-02-23T14:44:20;8.20;99.90
22923;DHT22;11627;51.322;22.816;2024-02-23T14:46:47;8.40;99.90
22923;DHT22;11627;51.322;22.816;2024-02-23T14:49:13;8.20;99.90
22923;DHT22;11627;51.322;22.816;2024-02-23T14:51:41;8.40;99.90
22923;DHT22;11627;51.322;22.816;2024-02-23T14:54:10;8.50;99.90
22923;DHT22;11627;51.322;22.816;2024-02-23T14:56:39;8.30;99.90
22923;DHT22;11627;51.322;22.816;2024-02-23T14:59:07;8.30;99.90
22923;DHT22;11627;51.322;22.816;2024-02-23T15:01:37;8.30;99.90
22923;DHT22;11627;51.322;22.816;2024-02-23T15:04:05;8.10;99.90
22923;DHT22;11627;51.322;22.816;2024-02-23T15:06:32;8.00;99.90
22923;DHT22;11627;51.322;22.816;2024-02-23T15:09:01;8.20;99.90
22923;DHT22;11627;51.322;22.816;2024-02-23T15:11:29;8.00;99.90
22923;DHT22;11627;51.322;22.816;2024-02-23T15:13:54;7.90;99.90
22923;DHT22;11627;51.322;22.816;2024-02-23T15:16:28;8.10;99.90
22923;DHT22;11627;51.322;22.816;2024-02-23T15:21:25;8.20;99.90
22923;DHT22;11627;51.322;22.816;2024-02-23T15:23:52;8.30;99.90
22923;DHT22;11627;51.322;22.816;2024-02-23T15:26:18;8.20;99.90
22923;DHT22;11627;51.322;22.816;2024-02-23T15:28:43;8.00;99.90
22923;DHT22;11627;51.322;22.816;2024-02-23T15:31:13;7.80;99.90
22923;DHT22;11627;51.322;22.816;2024-02-23T15:33:45;8.00;99.90
22923;DHT22;11627;51.322;22.816;2024-02-23T15:36:11;8.00;99.90
22923;DHT22;11627;51.322;22.816;2024-02-23T15:38:38;7.80;99.90
22923;DHT22;11627;51.322;22.816;2024-02-23T15:41:06;8.00;99.90
22923;DHT22;11627;51.322;22.816;2024-02-23T15:43:32;7.90;99.90
22923;DHT22;11627;51.322;22.816;2024-02-23T15:46:01;8.00;99.90
22923;DHT22;11627;51.322;22.816;2024-02-23T15:48:28;8.30;99.90
22923;DHT22;11627;51.322;22.816;2024-02-23T15:50:55;7.80;99.90
22923;DHT22;11627;51.322;22.816;2024-02-23T15:53:21;8.00;99.90
22923;DHT22;11627;51.322;22.816;2024-02-23T15:55:47;7.80;99.90
22923;DHT22;11627;51.322;22.816;2024-02-23T16:00:42;8.20;99.90
22923;DHT22;11627;51.322;22.816;2024-02-23T16:03:09;7.80;99.90
22923;DHT22;11627;51.322;22.816;2024-02-23T16:05:37;8.10;99.90
22923;DHT22;11627;51.322;22.816;2024-02-23T16:08:03;8.10;99.90
22923;DHT22;11627;51.322;22.816;2024-02-23T16:10:35;8.00;99.90
22923;DHT22;11627;51.322;22.816;2024-02-23T16:13:02;7.80;99.90
22923;DHT22;11627;51.322;22.816;2024-02-23T16:15:29;7.80;99.90
22923;DHT22;11627;51.322;22.816;2024-02-23T16:17:57;7.60;99.90
22923;DHT22;11627;51.322;22.816;2024-02-23T16:20:24;7.80;99.90
22923;DHT22;11627;51.322;22.816;2024-02-23T16:22:53;7.80;99.90
22923;DHT22;11627;51.322;22.816;2024-02-23T16:25:20;7.50;99.90
22923;DHT22;11627;51.322;22.816;2024-02-23T16:27:46;7.70;99.90
22923;DHT22;11627;51.322;22.816;2024-02-23T16:30:14;7.60;99.90
22923;DHT22;11627;51.322;22.816;2024-02-23T16:32:40;7.70;99.90
22923;DHT22;11627;51.322;22.816;2024-02-23T16:35:08;7.60;99.90
22923;DHT22;11627;51.322;22.816;2024-02-23T16:37:40;7.70;99.90
22923;DHT22;11627;51.322;22.816;2024-02-23T16:40:06;7.70;99.90
22923;DHT22;11627;51.322;22.816;2024-02-23T16:42:33;7.90;99.90
22923;DHT22;11627;51.322;22.816;2024-02-23T16:45:01;7.70;99.90
22923;DHT22;11627;51.322;22.816;2024-02-23T16:47:28;7.70;99.90
22923;DHT22;11627;51.322;22.816;2024-02-23T16:49:55;8.00;99.90
22923;DHT22;11627;51.322;22.816;2024-02-23T16:52:23;8.20;99.90
22923;DHT22;11627;51.322;22.816;2024-02-23T16:54:51;8.00;99.90
22923;DHT22;11627;51.322;22.816;2024-02-23T16:57:17;7.50;99.90
22923;DHT22;11627;51.322;22.816;2024-02-23T16:59:44;7.60;99.90
22923;DHT22;11627;51.322;22.816;2024-02-23T17:02:11;7.80;99.90
22923;DHT22;11627;51.322;22.816;2024-02-23T17:04:36;7.80;99.90
22923;DHT22;11627;51.322;22.816;2024-02-23T17:07:04;7.70;99.90
22923;DHT22;11627;51.322;22.816;2024-02-23T17:09:31;7.80;99.90
22923;DHT22;11627;51.322;22.816;2024-02-23T17:14:24;7.70;99.90
22923;DHT22;11627;51.322;22.816;2024-02-23T17:16:51;7.50;99.90
22923;DHT22;11627;51.322;22.816;2024-02-23T17:19:17;7.80;99.90
22923;DHT22;11627;51.322;22.816;2024-02-23T17:21:44;7.50;99.90
22923;DHT22;11627;51.322;22.816;2024-02-23T17:24:11;7.90;99.90
22923;DHT22;11627;51.322;22.816;2024-02-23T17:26:37;7.90;99.90
22923;DHT22;11627;51.322;22.816;2024-02-23T17:29:03;7.50;99.90
22923;DHT22;11627;51.322;22.816;2024-02-23T17:31:31;7.90;99.90
22923;DHT22;11627;51.322;22.816;2024-02-23T17:33:57;7.30;99.90
22923;DHT22;11627;51.322;22.816;2024-02-23T17:36:23;7.40;99.90
22923;DHT22;11627;51.322;22.816;2024-02-23T17:38:53;8.00;99.90
22923;DHT22;11627;51.322;22.816;2024-02-23T17:41:19;7.40;99.90
22923;DHT22;11627;51.322;22.816;2024-02-23T17:43:46;7.30;99.90
22923;DHT22;11627;51.322;22.816;2024-02-23T17:46:15;7.70;99.90
22923;DHT22;11627;51.322;22.816;2024-02-23T17:48:40;7.70;99.90
22923;DHT22;11627;51.322;22.816;2024-02-23T17:51:08;7.80;99.90
22923;DHT22;11627;51.322;22.816;2024-02-23T17:53:35;7.50;99.90
22923;DHT22;11627;51.322;22.816;2024-02-23T17:56:02;7.60;99.90
22923;DHT22;11627;51.322;22.816;2024-02-23T17:58:31;7.80;99.90
22923;DHT22;11627;51.322;22.816;2024-02-23T18:01:01;7.70;99.90
22923;DHT22;11627;51.322;22.816;2024-02-23T18:03:28;7.70;99.90
22923;DHT22;11627;51.322;22.816;2024-02-23T18:05:56;7.50;99.90